Latest Coastal Weather Observations for Carnarvon

IDW60701

Issued at 10:42 am WST Wednesday 10 February 2016 (issued every 10 minutes, with the page automatically refreshed every 10 minutes)

About coastal observations | Map of coastal stations | Coastal observations for WA | Marine services | Other Formats
Station Details ID: 006011 Name: CARNARVON AIRPORT Lat: -24.89 Lon: 113.67 Height: 4.0 m
Data from the previous 72 hours. | See also: Recent months at Carnarvon
Date/Time
WST
Temp

°C
Wind Pressure Rain
since 9am
mm
Weather Cloud Vis
km
Sea
Height
m
Swell
Dir
 
Speed
knots
Gust
knots
hPa Trend Height
m
Period
s
Dir
10/10:30am 30.9 S 15 19 1010.1 - 0.0 - - 10 - - - -
10/10:00am 31.5 S 13 16 1010.2 - 0.0 - - 10 - - - -
10/09:30am 33.2 S 12 15 1010.3 - 0.0 - - 10 - - - -
10/09:00am 32.5 SSE 13 16 1010.4 - 0.0 Fine Clear 25 - - - -
10/08:30am 30.7 S 13 17 1010.1 - 0.0 - - 10 - - - -
10/08:00am 29.7 S 12 16 1010.2 - 0.0 - - 10 - - - -
10/07:30am 28.2 SSE 12 15 1010.1 - 0.0 - - 10 - - - -
10/07:00am 26.7 S 12 16 1009.8 - 0.0 - - 10 - - - -
10/06:30am 25.8 S 11 13 1009.7 - 0.0 - - 10 - - - -
10/06:00am 25.6 S 10 12 1009.5 - 0.0 - - 10 - - - -
10/05:30am 25.9 S 11 14 1009.1 - 0.0 - - 10 - - - -
10/05:00am 26.2 S 12 15 1009.0 - 0.0 - - 10 - - - -
10/04:30am 26.6 S 12 15 1008.9 - 0.0 - - 10 - - - -
10/04:00am 27.0 S 12 15 1008.9 - 0.0 - - 10 - - - -
10/03:30am 27.2 S 11 13 1008.9 - 0.0 - - 10 - - - -
10/03:00am 27.0 S 9 12 1008.9 - 0.0 - - 10 - - - -
10/02:30am 27.4 S 12 15 1008.8 - 0.0 - - 10 - - - -
10/02:00am 27.7 S 12 14 1008.9 - 0.0 - - 10 - - - -
10/01:30am 28.2 S 12 15 1009.1 - 0.0 - - 10 - - - -
10/01:00am 28.4 S 12 16 1009.5 - 0.0 - - 10 - - - -
10/12:30am 28.9 S 16 21 1009.6 - 0.0 - - 10 - - - -
10/12:00am 28.8 S 14 17 1009.9 - 0.0 - - 10 - - - -
 
Date/Time
WST
Temp

°C
Wind Pressure Rain
since 9am
mm
Weather Cloud Vis
km
Sea
Height
m
Swell
Dir
 
Speed
knots
Gust
knots
hPa Trend Height
m
Period
s
Dir
09/11:30pm 28.8 S 13 17 1010.1 - 0.0 - - 10 - - - -
09/11:00pm 29.0 S 14 17 1010.4 - 0.0 - - 10 - - - -
09/10:30pm 29.0 S 12 15 1010.5 - 0.0 - - 10 - - - -
09/10:00pm 29.3 S 14 17 1010.3 - 0.0 - - 10 - - - -
09/09:30pm 29.7 S 13 17 1010.4 - 0.0 - - 10 - - - -
09/09:00pm 29.5 S 11 13 1010.2 - 0.0 - - 10 - - - -
09/08:30pm 29.1 S 8 10 1010.1 - 0.0 - - 10 - - - -
09/08:00pm 29.6 S 12 16 1009.7 - 0.0 - - 10 - - - -
09/07:30pm 29.8 S 13 17 1009.4 - 0.0 - - 10 - - - -
09/07:00pm 30.4 SSW 13 17 1009.0 - 0.0 - - 10 - - - -
09/06:30pm 31.3 S 14 19 1008.6 - 0.0 - - 10 - - - -
09/06:00pm 31.6 SSW 17 21 1007.9 - 0.0 - - 10 - - - -
09/05:30pm 32.6 SSW 16 21 1007.9 - 0.0 - - 10 - - - -
09/05:00pm 33.8 S 16 21 1007.7 - 0.0 - - 10 - - - -
09/04:30pm 34.1 S 15 20 1007.8 - 0.0 - - 10 - - - -
09/04:00pm 34.0 SSW 14 17 1008.0 - 0.0 - - 10 - - - -
09/03:30pm 35.4 SSW 12 15 1008.1 - 0.0 - - 10 - - - -
09/03:00pm 33.6 SSW 14 18 1008.3 - 0.0 Fine Mostly clear 30 - - - -
09/02:30pm 34.3 SSW 15 19 1008.4 - 0.0 - - 10 - - - -
09/02:00pm 35.1 SSW 14 17 1008.8 - 0.0 - - 10 - - - -
09/01:30pm 33.4 SSW 15 18 1008.9 - 0.0 - - 10 - - - -
09/01:00pm 33.9 SSW 17 20 1009.1 - 0.0 - - 10 - - - -
09/12:30pm 33.0 SSW 15 18 1009.4 - 0.0 - - 10 - - - -
09/12:00pm 32.5 SW 13 16 1009.8 - 0.0 - - 10 - - - -
09/11:30am 34.4 SSW 11 16 1010.0 - 0.0 - - 10 - - - -
09/11:00am 36.9 SW 8 11 1010.2 - 0.0 - - 10 - - - -
09/10:30am 37.3 SW 7 9 1010.4 - 0.0 - - 10 - - - -
09/10:00am 38.9 S 5 8 1010.6 - 0.0 - - 10 - - - -
09/09:30am 37.4 S 7 9 1010.7 - 0.0 - - 10 - - - -
09/09:00am 37.1 E 9 12 1010.6 - 0.0 Fine Clear 27 - - - -
09/08:30am 34.3 ESE 9 12 1010.3 - 0.0 - - 10 - - - -
09/08:00am 31.5 SE 10 12 1010.2 - 0.0 - - 10 - - - -
09/07:30am 29.3 SSE 9 13 1010.1 - 0.0 - - 10 - - - -
09/07:00am 26.8 SSE 8 9 1009.9 - 0.0 - - 10 - - - -
09/06:30am 25.1 S 7 9 1009.7 - 0.0 - - 10 - - - -
09/06:00am 24.8 S 8 9 1009.2 - 0.0 - - 10 - - - -
09/05:30am 25.0 S 8 9 1009.0 - 0.0 - - 10 - - - -
09/05:00am 25.3 S 8 9 1008.8 - 0.0 - - 10 - - - -
09/04:30am 25.8 S 8 10 1008.8 - 0.0 - - 10 - - - -
09/04:00am 26.0 S 9 11 1008.7 - 0.0 - - 10 - - - -
09/03:30am 26.6 S 10 12 1008.6 - 0.0 - - 10 - - - -
09/03:00am 27.0 S 11 15 1008.6 - 0.0 - - 10 - - - -
09/02:30am 27.2 S 12 15 1008.8 - 0.0 - - 10 - - - -
09/02:00am 27.3 S 12 14 1009.0 - 0.0 - - 10 - - - -
09/01:30am 27.8 S 13 16 1009.2 - 0.0 - - 10 - - - -
09/01:00am 27.9 S 13 16 1009.6 - 0.0 - - 10 - - - -
09/12:30am 28.0 S 13 17 1009.8 - 0.0 - - 10 - - - -
09/12:00am 28.5 S 13 17 1010.0 - 0.0 - - 10 - - - -
 
Date/Time
WST
Temp

°C
Wind Pressure Rain
since 9am
mm
Weather Cloud Vis
km
Sea
Height
m
Swell
Dir
 
Speed
knots
Gust
knots
hPa Trend Height
m
Period
s
Dir
08/11:30pm 28.7 S 15 19 1010.2 - 0.0 - - 10 - - - -
08/11:00pm 28.9 S 16 21 1010.3 - 0.0 - - 10 - - - -
08/10:30pm 28.9 S 13 17 1010.5 - 0.0 - - 10 - - - -
08/10:00pm 28.4 S 11 15 1010.6 - 0.0 - - 10 - - - -
08/09:30pm 28.2 S 10 13 1010.6 - 0.0 - - 10 - - - -
08/09:00pm 27.9 SSW 9 12 1010.7 - 0.0 - - 10 - - - -
08/08:30pm 27.8 SSW 12 15 1010.2 - 0.0 - - 10 - - - -
08/08:00pm 28.0 SSW 13 17 1009.7 - 0.0 - - 10 - - - -
08/07:30pm 28.8 SW 13 19 1009.3 - 0.0 - - 10 - - - -
08/07:00pm 29.7 SSW 14 18 1008.7 - 0.0 - - 10 - - - -
08/06:30pm 30.5 SSW 12 16 1008.5 - 0.0 - - 10 - - - -
08/06:00pm 32.2 SW 12 18 1008.3 - 0.0 - - 10 - - - -
08/05:30pm 34.2 WSW 12 17 1008.0 - 0.0 - - 10 - - - -
08/05:00pm 36.0 SW 13 16 1007.6 - 0.0 - - 10 - - - -
08/04:30pm 36.1 SW 13 17 1007.7 - 0.0 - - 10 - - - -
08/04:00pm 35.4 SW 15 19 1007.8 - 0.0 - - 10 - - - -
08/03:30pm 35.7 SW 13 16 1008.1 - 0.0 - - 10 - - - -
08/03:00pm 36.1 SW 14 17 1008.2 - 0.0 Fine Clear 30 - - - -
08/02:30pm 36.4 SW 14 16 1008.2 - 0.0 - - 10 - - - -
08/02:00pm 35.4 SW 13 17 1008.4 - 0.0 - - 10 - - - -
08/01:30pm 33.3 WSW 14 17 1008.6 - 0.0 - - 10 - - - -
08/01:00pm 33.2 WSW 11 14 1008.9 - 0.0 - - 10 - - - -
08/12:30pm 33.0 SSW 13 16 1009.1 - 0.0 - - 10 - - - -
08/12:00pm 33.0 WSW 12 15 1009.3 - 0.0 - - 10 - - - -
08/11:34am 32.6 WSW 11 13 1009.5 - 0.0 - - 10 - - - -
08/11:30am 32.9 WSW 10 12 1009.6 - 0.0 - - 10 - - - -
08/11:12am 32.6 WSW 8 11 1009.8 - 0.0 - - 8 - - - -
08/11:00am 34.2 SSW 7 9 1009.8 - 0.0 - - 10 - - - -
08/10:30am 33.7 SSW 6 8 1009.9 - 0.0 - - 10 - - - -
08/10:00am 33.3 SSW 7 8 1010.0 - 0.0 - - 10 - - - -
08/09:30am 33.9 SSW 6 8 1010.1 - 0.0 - - 10 - - - -
08/09:00am 34.7 ESE 6 8 1010.0 - 0.0 Fine Clear 25 - - - -
08/08:30am 33.1 SE 6 9 1009.9 - 0.0 - - 10 - - - -
08/08:00am 29.0 S 6 8 1009.7 - 0.0 - - 10 - - - -
08/07:30am 27.2 SSE 6 7 1009.8 - 0.0 - - 10 - - - -
08/07:00am 25.7 S 7 8 1009.4 - 0.0 - - 10 - - - -
08/06:30am 24.6 S 7 9 1009.1 - 0.0 - - 10 - - - -
08/06:00am 24.3 S 8 9 1008.9 - 0.0 - - 10 - - - -
08/05:30am 24.4 S 7 8 1008.7 - 0.0 - - 10 - - - -
08/05:00am 24.2 S 8 10 1008.7 - 0.0 - - 10 - - - -
08/04:30am 24.5 S 7 9 1008.6 - 0.0 - - 10 - - - -
08/04:00am 25.3 S 9 11 1008.6 - 0.0 - - 10 - - - -
08/03:30am 26.2 S 12 14 1008.6 - 0.0 - - 10 - - - -
08/03:00am 26.6 S 11 13 1008.8 - 0.0 - - 10 - - - -
08/02:30am 26.6 S 11 14 1008.9 - 0.0 - - 10 - - - -
08/02:00am 26.6 S 11 14 1009.1 - 0.0 - - 10 - - - -
08/01:30am 26.5 S 11 15 1009.5 - 0.0 - - 10 - - - -
08/01:00am 26.4 S 11 14 1009.9 - 0.0 - - 10 - - - -
08/12:30am 26.5 S 11 15 1010.2 - 0.0 - - 10 - - - -
08/12:00am 26.3 SSW 10 13 1010.6 - 0.0 - - 10 - - - -
 
Date/Time
WST
Temp

°C
Wind Pressure Rain
since 9am
mm
Weather Cloud Vis
km
Sea
Height
m
Swell
Dir
 
Speed
knots
Gust
knots
hPa Trend Height
m
Period
s
Dir
07/11:30pm 26.6 SSW 11 14 1011.0 - 0.0 - - 10 - - - -
07/11:00pm 27.0 SSW 11 15 1011.3 - 0.0 - - 10 - - - -
07/10:30pm 27.0 SSW 11 18 1011.2 - 0.0 - - 10 - - - -
07/10:00pm 26.6 SSW 8 11 1011.2 - 0.0 - - 10 - - - -
07/09:30pm 26.8 SW 9 12 1011.0 - 0.0 - - 10 - - - -
07/09:00pm 26.8 SW 9 12 1010.8 - 0.0 - - 10 - - - -
07/08:30pm 27.1 SW 10 12 1010.3 - 0.0 - - 10 - - - -
07/08:00pm 27.5 SSW 11 15 1009.9 - 0.0 - - 10 - - - -
07/07:30pm 27.7 SSW 14 18 1009.0 - 0.0 - - 10 - - - -
07/07:00pm 28.1 SW 12 15 1008.6 - 0.0 - - 10 - - - -
07/06:30pm 28.7 SSW 15 19 1008.2 - 0.0 - - 10 - - - -
07/06:00pm 29.6 SSW 16 22 1007.8 - 0.0 - - 10 - - - -
07/05:30pm 31.0 SSW 17 23 1007.5 - 0.0 - - 10 - - - -
07/05:00pm 32.4 SSW 15 20 1007.3 - 0.0 - - 10 - - - -
07/04:30pm 32.3 SSW 16 22 1007.3 - 0.0 - - 10 - - - -
07/04:00pm 32.8 SSW 16 21 1007.3 - 0.0 - - 10 - - - -
07/03:30pm 34.4 SSW 16 20 1007.4 - 0.0 - - 10 - - - -
07/03:00pm 34.9 SSW 15 19 1007.5 - 0.0 Fine Clear 30 - - - -
07/02:30pm 34.5 SSW 16 20 1007.7 - 0.0 - - 10 - - - -
07/02:00pm 35.0 SSW 15 21 1007.8 - 0.0 - - 10 - - - -
07/01:30pm 34.6 SSW 15 18 1007.9 - 0.0 - - 10 - - - -
07/01:00pm 36.1 SSW 15 19 1008.2 - 0.0 - - 10 - - - -
07/12:30pm 35.0 SSW 13 15 1008.5 - 0.0 - - 10 - - - -
07/12:00pm 37.2 SSW 11 14 1008.7 - 0.0 - - 10 - - - -
07/11:55am 37.1 SW 11 12 1008.7 - 0.0 - - 10 - - - -
07/11:30am 42.5 E 7 9 1008.9 - 0.0 - - 10 - - - -
07/11:00am 41.8 ENE 11 19 1009.1 - 0.0 - - 10 - - - -

Other Formats:

Comma delimited format used in spreadsheet applications
http://www.bom.gov.au/fwo/IDW60701/IDW60701.94300.axf

JavaScript Object Notation format (JSON) in row-major order
http://www.bom.gov.au/fwo/IDW60701/IDW60701.94300.json